Terminal Aerodrome Forecast
Issued by NWS

Home | Current Version | Previous Version | Text Only | Print | Product List | Glossary On
Versions: 1 2 3 4 5 6 7 8 9 10 11 12 13 14 15 16 17 18 19 20 21
000
FTUS44 KBMX 292320
TAFANB
TAF
KANB 292320Z 3000/3024 12002KT P6SM BKN120
     FM301000 06003KT 5SM BR BKN250
     FM301300 10003KT P6SM FEW250
     FM301800 17007KT P6SM SCT050=

USA.gov is the U.S. government's official web portal to all federal, state and local government web resources and services.